Карточка аэропорта URKA

Внимание!
Информация на этой странице в стадии наполнения.
Если вы не увидели какой-то информации, или заметили неточность - пожалуйста сообщите нам!
Спасибо!
Команда RU-STAFF
Название аэропортаВитязево
Название аэропорта (англ.)Vityazevo
Превышение176 ft. (53.6 m.)
Координаты45°0.13200000000012', 37°20.832'
Высота перехода4000 ft
Эшелон переходаFL50 (QNH >= 1013); FL60 (QNH 977-1012); FL70 (QNH < 977)
Коды ответчика1040-1047
Зона ОрВДРостов-на-Дону РПИ (URRV)
Данные METARURKA 260230Z 12003MPS 070V170 9999 SCT///CB 12/07 Q1013 R03/290160 TEMPO 1000 SHRA BKN016CB RMK QFE756/1008
Проноз погоды (TAF)URKA 260156Z 2603/2703 08007G14MPS 6000 BKN020CB TEMPO 2603/2606 06010G18MPS -SHRA BKN016CB FM260900 05003G08MPS 9999 SCT020CB TEMPO 2609/2615 09006G13MPS TEMPO 2621/2703 6000 -SHRA BKN016CB
NOTAMshow/hide NOTAM
AWOS   TABLE

Информация о ВПП

ВПП Длина ВПП (м.) Покрытие Курс ВПП Частота ILS
222500Цементобетон216 
042500Цементобетон36109.1

Диспетчерские позиции

Позывной Наименование органа УВД Частота
URKA_TWRАнапа-Старт119.8
URKA_R_APPАнапа-Круг118.7
URKA_GNDАнапа-Руление119.0
URKAFM1119,0



Спутниковое изображение